Flight Track Log - Related Links

Times and Time Zones

All times are in EST time to prevent confusion due to time zone crossing. See the BMJ70 flight status page for this flight to view local times or setup timezone preferences in your user account.

Time Position Orientation Groundspeed Altitude Reporting Facility
EST Latitude Longitude Course Direction KTS MPH feet Rate Location/Type
Sat 09:50:45 AM 47.2325 -93.5725 280° West 115 132 3,100  Level Minneapolis Center
Sat 09:51:46 AM 47.2342 -93.6233 273° West 119 137 4,000 836 Climbing Minneapolis Center
Sat 09:52:47 AM 47.2306 -93.6767 264° West 125 144 4,800 934 Climbing Minneapolis Center
Sat 09:53:00 AM 47.2788 -93.8313 288° West  Level FlightAware Approximate
Sat 09:53:48 AM 47.2203 -93.7253 253° West 126 145 5,900  Level Minneapolis Center
Sat 09:54:00 AM 47.2903 -93.8855 287° West  Level FlightAware Approximate
Sat 09:54:49 AM 47.2206 -93.7900 270° West 128 147 6,000  Level Minneapolis Center
Sat 09:55:50 AM 47.2269 -93.8475 279° West 135 155 6,000  Level Minneapolis Center
Sat 09:56:51 AM 47.2350 -93.9017 282° West 137 158 6,000  Level Minneapolis Center
Sat 09:57:52 AM 47.2458 -93.9542 287° West 136 157 6,000  Level Minneapolis Center
Sat 09:58:55 AM 47.2556 -94.0075 285° West 135 155 6,000  Level Minneapolis Center
Sat 09:59:56 AM 47.2658 -94.0597 286° West 135 155 6,000  Level Minneapolis Center
Sat 10:00:57 AM 47.2772 -94.1133 287° West 135 155 6,000  Level Minneapolis Center
Sat 10:01:58 AM 47.2861 -94.1683 283° West 137 158 6,000  Level Minneapolis Center
Sat 10:02:59 AM 47.2953 -94.2247 283° West 139 160 6,000 -49 Level Minneapolis Center
Sat 10:04:00 AM 47.3028 -94.2822 281° West 141 162 5,900 -49 Descending Minneapolis Center
Sat 10:05:01 AM 47.3056 -94.3422 274° West 144 166 5,900  Level Minneapolis Center
Sat 10:06:01 AM 47.3106 -94.4119 276° West 144 166 5,900  Level Minneapolis Center
Sat 10:07:02 AM 47.3167 -94.4686 279° West 142 163 5,900 -49 Level Minneapolis Center
Sat 10:08:03 AM 47.3225 -94.5256 279° West 141 162 5,800 -443 Descending Minneapolis Center
Sat 10:09:04 AM 47.3289 -94.5844 279° West 143 165 5,000 -443 Descending Minneapolis Center
Sat 10:10:05 AM 47.3439 -94.6331 294° West 137 158 4,900 -49 Descending Minneapolis Center
Sat 10:11:06 AM 47.3661 -94.6747 308° West 131 151 4,900 -197 Level Minneapolis Center
Sat 10:12:07 AM 47.3808 -94.7206 295° West 127 146 4,500 -443 Descending Minneapolis Center
Sat 10:13:08 AM 47.3953 -94.7678 294° West 128 147 4,000 -639 Descending Minneapolis Center
Sat 10:14:09 AM 47.4211 -94.8039 317° Northwest 125 144 3,200 -443 Descending Minneapolis Center
Sat 10:15:10 AM 47.4483 -94.8433 316° Northwest 126 145 3,100 -49 Descending Minneapolis Center
Sat 10:16:11 AM 47.4689 -94.8728 316° Northwest 124 143 3,100  Level Minneapolis Center
Sat 10:18:00 AM 47.5000 -94.9333 270° West  Level FlightAware Approximate

Login

Don't have an account? Register now (free) for customized features, flight alerts, and more!